PWSweather.com
Personal Weather Stations
Station Observations
SANDHURSTWX
SandhurstGB

SandhurstGB

Lat: 51.3522, Lon: -0.7739

Elevation: 272.3

Station Type: Davis VP2

www.sandhurstweather.org.uk

High Low Average
Temperature 71.6°F22.0°C 50.2°F10.1°C 58.9°F14.9°C
Dew Point 51.7°F10.9°C 46.6°F8.1°C 48.8°F9.3°C
Winds 5.8 mph 9.3 kmh Calm Calm 3.0 mph E4.8 kmh E
Wind Gusts 11.5 mph18.5 kmh 1.2 mph1.9 kmh 5.0 mph8.0 kmh
Humidity 94% 41% 72%
Pressure 30.40 in1029.5 mb 30.07 in1018.3 mb -
Precipitation 0.00 in0.0 mm - -
Hour Temp Dew Point Humidity Winds Wind Gusts Pressure Precip Precip Rate Daily Precip Total
12:00 AM 52.8°F11.6°C 47.8°F8.8°C 83% Calm Calm 1.2 mph1.9 kmh 30.40 in1029.5 mb - 0.00 in0.0 mm 0.00 in0.0 mm
01:00 AM 51.9°F11.1°C 47.8°F8.8°C 86% 1.2 mph E1.9 kmh E 4.6 mph7.4 kmh 30.39 in1029.1 mb - 0.00 in0.0 mm 0.00 in0.0 mm
02:00 AM 51.3°F10.7°C 47.9°F8.8°C 88% 1.2 mph NE1.9 kmh NE 1.2 mph1.9 kmh 30.38 in1028.8 mb - 0.00 in0.0 mm 0.00 in0.0 mm
03:00 AM 51.2°F10.7°C 48.7°F9.3°C 91% Calm Calm 1.2 mph1.9 kmh 30.37 in1028.4 mb - 0.00 in0.0 mm 0.00 in0.0 mm
04:00 AM 50.9°F10.5°C 48.7°F9.3°C 92% 1.2 mph NE1.9 kmh NE 2.3 mph3.7 kmh 30.35 in1027.8 mb - 0.00 in0.0 mm 0.00 in0.0 mm
05:00 AM 50.3°F10.2°C 48.4°F9.1°C 93% 1.2 mph NE1.9 kmh NE 2.3 mph3.7 kmh 30.34 in1027.4 mb - 0.00 in0.0 mm 0.00 in0.0 mm
06:00 AM 50.2°F10.1°C 48.3°F9.1°C 93% 1.2 mph ENE1.9 kmh ENE 2.3 mph3.7 kmh 30.34 in1027.4 mb - 0.00 in0.0 mm 0.00 in0.0 mm
07:00 AM 50.3°F10.2°C 48.6°F9.2°C 94% 1.2 mph NE1.9 kmh NE 3.5 mph5.6 kmh 30.34 in1027.4 mb - 0.00 in0.0 mm 0.00 in0.0 mm
08:00 AM 53.3°F11.8°C 50.8°F10.4°C 91% 2.3 mph E3.7 kmh E 4.6 mph7.4 kmh 30.33 in1027.1 mb - 0.00 in0.0 mm 0.00 in0.0 mm
09:00 AM 61.2°F16.2°C 51.7°F10.9°C 71% 4.6 mph SE7.4 kmh SE 6.9 mph11.1 kmh 30.33 in1027.1 mb - 0.00 in0.0 mm 0.00 in0.0 mm
10:00 AM 64.3°F17.9°C 49.6°F9.8°C 59% 3.5 mph SE5.6 kmh SE 6.9 mph11.1 kmh 30.31 in1026.4 mb - 0.00 in0.0 mm 0.00 in0.0 mm
11:00 AM 66.5°F19.2°C 49.3°F9.6°C 54% 4.6 mph SE7.4 kmh SE 8.1 mph13.0 kmh 30.28 in1025.4 mb - 0.00 in0.0 mm 0.00 in0.0 mm
12:00 PM 69.2°F20.7°C 48.7°F9.3°C 48% 4.6 mph SE7.4 kmh SE 11.5 mph18.5 kmh 30.26 in1024.7 mb - 0.00 in0.0 mm 0.00 in0.0 mm
01:00 PM 70.7°F21.5°C 47.7°F8.7°C 44% 3.5 mph SE5.6 kmh SE 5.8 mph9.3 kmh 30.23 in1023.7 mb - 0.00 in0.0 mm 0.00 in0.0 mm
02:00 PM 71.6°F22.0°C 46.6°F8.1°C 41% 5.8 mph E9.3 kmh E 9.2 mph14.8 kmh 30.20 in1022.7 mb - 0.00 in0.0 mm 0.00 in0.0 mm
03:00 PM 71.1°F21.7°C 48.7°F9.3°C 45% 4.6 mph SSE7.4 kmh SSE 6.9 mph11.1 kmh 30.18 in1022.0 mb - 0.00 in0.0 mm 0.00 in0.0 mm
04:00 PM 69.2°F20.7°C 49.8°F9.9°C 50% 3.5 mph E5.6 kmh E 3.5 mph5.6 kmh 30.16 in1021.3 mb - 0.00 in0.0 mm 0.00 in0.0 mm
05:00 PM 65.2°F18.4°C 48.1°F8.9°C 54% 5.8 mph E9.3 kmh E 8.1 mph13.0 kmh 30.14 in1020.7 mb - 0.00 in0.0 mm 0.00 in0.0 mm
07:00 PM 59.2°F15.1°C 48.7°F9.3°C 68% 5.8 mph E9.3 kmh E 8.1 mph13.0 kmh 30.12 in1020.0 mb - 0.00 in0.0 mm 0.00 in0.0 mm
08:00 PM 57.4°F14.1°C 48.8°F9.3°C 73% 4.6 mph E7.4 kmh E 9.2 mph14.8 kmh 30.11 in1019.6 mb - 0.00 in0.0 mm 0.00 in0.0 mm
09:00 PM 56.5°F13.6°C 49.4°F9.7°C 77% 3.5 mph ENE5.6 kmh ENE 6.9 mph11.1 kmh 30.10 in1019.3 mb - 0.00 in0.0 mm 0.00 in0.0 mm
10:00 PM 55.3°F12.9°C 49.2°F9.6°C 80% 1.2 mph E1.9 kmh E 2.3 mph3.7 kmh 30.08 in1018.6 mb - 0.00 in0.0 mm 0.00 in0.0 mm
11:00 PM 55.1°F12.8°C 48.7°F9.3°C 79% 2.3 mph ENE3.7 kmh ENE 3.5 mph5.6 kmh 30.07 in1018.3 mb - 0.00 in0.0 mm 0.00 in0.0 mm